sensor_id;sensor_type;location;lat;lon;timestamp;P1;durP1;ratioP1;P2;durP2;ratioP2
32200;SDS011;18701;45.588;5.288;2023-05-24T00:01:15;9.75;;;4.22;;
32200;SDS011;18701;45.588;5.288;2023-05-24T00:03:49;7.53;;;4.28;;
32200;SDS011;18701;45.588;5.288;2023-05-24T00:06:16;5.93;;;4.05;;
32200;SDS011;18701;45.588;5.288;2023-05-24T00:08:42;8.55;;;3.90;;
32200;SDS011;18701;45.588;5.288;2023-05-24T00:11:08;7.78;;;4.03;;
32200;SDS011;18701;45.588;5.288;2023-05-24T00:13:35;8.98;;;4.25;;
32200;SDS011;18701;45.588;5.288;2023-05-24T00:16:01;4.38;;;3.90;;
32200;SDS011;18701;45.588;5.288;2023-05-24T00:18:27;6.28;;;3.35;;
32200;SDS011;18701;45.588;5.288;2023-05-24T00:20:55;5.57;;;3.45;;
32200;SDS011;18701;45.588;5.288;2023-05-24T00:23:24;5.55;;;3.60;;
32200;SDS011;18701;45.588;5.288;2023-05-24T00:25:53;3.92;;;3.47;;
32200;SDS011;18701;45.588;5.288;2023-05-24T00:28:18;6.43;;;3.75;;
32200;SDS011;18701;45.588;5.288;2023-05-24T00:30:45;6.90;;;3.40;;
32200;SDS011;18701;45.588;5.288;2023-05-24T00:33:11;4.15;;;3.25;;
32200;SDS011;18701;45.588;5.288;2023-05-24T00:35:37;5.82;;;3.45;;
32200;SDS011;18701;45.588;5.288;2023-05-24T00:38:02;4.63;;;3.38;;
32200;SDS011;18701;45.588;5.288;2023-05-24T00:40:28;4.97;;;3.55;;
32200;SDS011;18701;45.588;5.288;2023-05-24T00:42:54;4.57;;;3.50;;
32200;SDS011;18701;45.588;5.288;2023-05-24T00:45:19;7.38;;;3.00;;
32200;SDS011;18701;45.588;5.288;2023-05-24T00:47:45;5.65;;;3.00;;
32200;SDS011;18701;45.588;5.288;2023-05-24T00:50:11;5.15;;;3.30;;
32200;SDS011;18701;45.588;5.288;2023-05-24T00:52:41;7.38;;;3.42;;
32200;SDS011;18701;45.588;5.288;2023-05-24T00:55:07;4.72;;;3.35;;
32200;SDS011;18701;45.588;5.288;2023-05-24T00:57:35;5.20;;;3.17;;
32200;SDS011;18701;45.588;5.288;2023-05-24T01:00:04;5.20;;;3.08;;
32200;SDS011;18701;45.588;5.288;2023-05-24T01:02:30;7.47;;;3.10;;
32200;SDS011;18701;45.588;5.288;2023-05-24T01:04:56;3.85;;;3.13;;
32200;SDS011;18701;45.588;5.288;2023-05-24T01:07:26;3.28;;;2.92;;
32200;SDS011;18701;45.588;5.288;2023-05-24T01:13:11;3.45;;;3.05;;
32200;SDS011;18701;45.588;5.288;2023-05-24T01:18:26;10.15;;;3.40;;
32200;SDS011;18701;45.588;5.288;2023-05-24T01:26:51;5.20;;;3.70;;
32200;SDS011;18701;45.588;5.288;2023-05-24T01:29:27;5.50;;;3.38;;
32200;SDS011;18701;45.588;5.288;2023-05-24T01:31:55;7.45;;;3.70;;
32200;SDS011;18701;45.588;5.288;2023-05-24T01:34:21;6.43;;;3.50;;
32200;SDS011;18701;45.588;5.288;2023-05-24T01:36:49;5.50;;;3.78;;
32200;SDS011;18701;45.588;5.288;2023-05-24T01:39:14;7.18;;;3.22;;
32200;SDS011;18701;45.588;5.288;2023-05-24T01:41:42;4.60;;;3.83;;
32200;SDS011;18701;45.588;5.288;2023-05-24T01:49:56;5.07;;;3.13;;
32200;SDS011;18701;45.588;5.288;2023-05-24T01:52:29;5.07;;;3.28;;
32200;SDS011;18701;45.588;5.288;2023-05-24T01:54:57;5.28;;;3.67;;
32200;SDS011;18701;45.588;5.288;2023-05-24T01:57:25;5.40;;;3.47;;
32200;SDS011;18701;45.588;5.288;2023-05-24T01:59:52;5.95;;;4.00;;
32200;SDS011;18701;45.588;5.288;2023-05-24T02:02:19;6.03;;;3.75;;
32200;SDS011;18701;45.588;5.288;2023-05-24T02:04:45;5.95;;;3.53;;
32200;SDS011;18701;45.588;5.288;2023-05-24T02:07:10;4.68;;;4.10;;
32200;SDS011;18701;45.588;5.288;2023-05-24T02:09:37;9.30;;;3.80;;
32200;SDS011;18701;45.588;5.288;2023-05-24T02:12:02;3.78;;;3.40;;
32200;SDS011;18701;45.588;5.288;2023-05-24T02:14:28;8.20;;;3.78;;
32200;SDS011;18701;45.588;5.288;2023-05-24T02:16:54;5.40;;;3.80;;
32200;SDS011;18701;45.588;5.288;2023-05-24T02:19:22;4.93;;;3.35;;
32200;SDS011;18701;45.588;5.288;2023-05-24T02:21:48;5.80;;;4.40;;
32200;SDS011;18701;45.588;5.288;2023-05-24T02:24:15;6.20;;;4.07;;
32200;SDS011;18701;45.588;5.288;2023-05-24T02:26:42;7.00;;;4.45;;
32200;SDS011;18701;45.588;5.288;2023-05-24T02:29:08;4.72;;;3.78;;
32200;SDS011;18701;45.588;5.288;2023-05-24T02:31:34;4.05;;;3.47;;
32200;SDS011;18701;45.588;5.288;2023-05-24T02:34:00;7.28;;;3.80;;
32200;SDS011;18701;45.588;5.288;2023-05-24T02:36:26;6.10;;;3.42;;
32200;SDS011;18701;45.588;5.288;2023-05-24T02:38:52;7.68;;;3.78;;
32200;SDS011;18701;45.588;5.288;2023-05-24T02:41:18;6.60;;;4.10;;
32200;SDS011;18701;45.588;5.288;2023-05-24T02:43:44;8.98;;;3.92;;
32200;SDS011;18701;45.588;5.288;2023-05-24T02:46:10;8.10;;;3.92;;
32200;SDS011;18701;45.588;5.288;2023-05-24T02:48:35;5.40;;;4.05;;
32200;SDS011;18701;45.588;5.288;2023-05-24T02:51:01;5.38;;;3.85;;
32200;SDS011;18701;45.588;5.288;2023-05-24T02:53:30;7.75;;;4.32;;
32200;SDS011;18701;45.588;5.288;2023-05-24T02:55:56;9.98;;;4.53;;
32200;SDS011;18701;45.588;5.288;2023-05-24T02:58:22;7.57;;;4.18;;
32200;SDS011;18701;45.588;5.288;2023-05-24T03:00:48;7.45;;;4.18;;
32200;SDS011;18701;45.588;5.288;2023-05-24T03:03:14;10.85;;;4.45;;
32200;SDS011;18701;45.588;5.288;2023-05-24T03:05:40;7.50;;;4.57;;
32200;SDS011;18701;45.588;5.288;2023-05-24T03:08:06;7.93;;;4.45;;
32200;SDS011;18701;45.588;5.288;2023-05-24T03:10:31;5.50;;;4.30;;
32200;SDS011;18701;45.588;5.288;2023-05-24T03:12:57;8.45;;;4.03;;
32200;SDS011;18701;45.588;5.288;2023-05-24T03:15:23;6.50;;;4.90;;
32200;SDS011;18701;45.588;5.288;2023-05-24T03:17:48;9.82;;;4.60;;
32200;SDS011;18701;45.588;5.288;2023-05-24T03:20:14;10.13;;;4.93;;
32200;SDS011;18701;45.588;5.288;2023-05-24T03:22:41;9.85;;;4.60;;
32200;SDS011;18701;45.588;5.288;2023-05-24T03:25:07;7.25;;;5.07;;
32200;SDS011;18701;45.588;5.288;2023-05-24T03:27:33;10.63;;;5.25;;
32200;SDS011;18701;45.588;5.288;2023-05-24T03:30:00;6.82;;;5.00;;
32200;SDS011;18701;45.588;5.288;2023-05-24T03:32:26;6.88;;;4.82;;
32200;SDS011;18701;45.588;5.288;2023-05-24T03:34:51;12.65;;;5.10;;
32200;SDS011;18701;45.588;5.288;2023-05-24T03:37:17;6.25;;;4.90;;
32200;SDS011;18701;45.588;5.288;2023-05-24T03:39:43;8.95;;;4.45;;
32200;SDS011;18701;45.588;5.288;2023-05-24T03:42:08;7.90;;;5.13;;
32200;SDS011;18701;45.588;5.288;2023-05-24T03:44:34;9.90;;;5.05;;
32200;SDS011;18701;45.588;5.288;2023-05-24T03:47:00;6.57;;;4.80;;
32200;SDS011;18701;45.588;5.288;2023-05-24T03:49:25;8.30;;;4.95;;
32200;SDS011;18701;45.588;5.288;2023-05-24T03:51:51;6.78;;;4.78;;
32200;SDS011;18701;45.588;5.288;2023-05-24T03:54:16;9.05;;;5.00;;
32200;SDS011;18701;45.588;5.288;2023-05-24T03:56:42;9.60;;;6.00;;
32200;SDS011;18701;45.588;5.288;2023-05-24T03:59:08;9.07;;;5.30;;
32200;SDS011;18701;45.588;5.288;2023-05-24T04:01:34;8.27;;;6.03;;
32200;SDS011;18701;45.588;5.288;2023-05-24T04:04:01;8.45;;;4.95;;
32200;SDS011;18701;45.588;5.288;2023-05-24T04:06:27;10.70;;;5.22;;
32200;SDS011;18701;45.588;5.288;2023-05-24T04:08:57;12.25;;;5.57;;
32200;SDS011;18701;45.588;5.288;2023-05-24T04:11:23;7.35;;;5.47;;
32200;SDS011;18701;45.588;5.288;2023-05-24T04:13:52;7.85;;;5.65;;
32200;SDS011;18701;45.588;5.288;2023-05-24T04:16:22;7.25;;;5.70;;
32200;SDS011;18701;45.588;5.288;2023-05-24T04:18:49;9.82;;;6.07;;
32200;SDS011;18701;45.588;5.288;2023-05-24T04:21:18;7.50;;;5.65;;
32200;SDS011;18701;45.588;5.288;2023-05-24T04:23:43;12.35;;;5.75;;
32200;SDS011;18701;45.588;5.288;2023-05-24T04:26:09;8.65;;;5.47;;
32200;SDS011;18701;45.588;5.288;2023-05-24T04:28:35;8.80;;;5.28;;
32200;SDS011;18701;45.588;5.288;2023-05-24T04:31:05;8.30;;;5.60;;
32200;SDS011;18701;45.588;5.288;2023-05-24T04:33:31;8.13;;;5.32;;
32200;SDS011;18701;45.588;5.288;2023-05-24T04:35:58;8.40;;;5.88;;
32200;SDS011;18701;45.588;5.288;2023-05-24T04:38:26;11.77;;;5.38;;
32200;SDS011;18701;45.588;5.288;2023-05-24T04:41:03;6.40;;;4.85;;
32200;SDS011;18701;45.588;5.288;2023-05-24T04:43:29;6.45;;;5.20;;
32200;SDS011;18701;45.588;5.288;2023-05-24T04:45:55;9.13;;;6.18;;
32200;SDS011;18701;45.588;5.288;2023-05-24T04:48:22;11.48;;;5.95;;
32200;SDS011;18701;45.588;5.288;2023-05-24T04:50:52;9.52;;;5.72;;
32200;SDS011;18701;45.588;5.288;2023-05-24T04:53:18;8.63;;;5.53;;
32200;SDS011;18701;45.588;5.288;2023-05-24T04:55:45;10.85;;;6.53;;
32200;SDS011;18701;45.588;5.288;2023-05-24T04:58:11;6.78;;;5.15;;
32200;SDS011;18701;45.588;5.288;2023-05-24T05:00:37;12.43;;;5.82;;
32200;SDS011;18701;45.588;5.288;2023-05-24T05:03:02;8.48;;;5.88;;
32200;SDS011;18701;45.588;5.288;2023-05-24T05:05:28;10.32;;;5.80;;
32200;SDS011;18701;45.588;5.288;2023-05-24T05:07:53;17.08;;;6.55;;
32200;SDS011;18701;45.588;5.288;2023-05-24T05:10:19;8.95;;;5.60;;
32200;SDS011;18701;45.588;5.288;2023-05-24T05:12:45;9.52;;;6.25;;
32200;SDS011;18701;45.588;5.288;2023-05-24T05:15:10;10.30;;;5.93;;
32200;SDS011;18701;45.588;5.288;2023-05-24T05:17:37;8.75;;;6.00;;
32200;SDS011;18701;45.588;5.288;2023-05-24T05:20:03;11.15;;;6.43;;
32200;SDS011;18701;45.588;5.288;2023-05-24T05:22:29;9.63;;;6.20;;
32200;SDS011;18701;45.588;5.288;2023-05-24T05:24:54;9.38;;;6.13;;
32200;SDS011;18701;45.588;5.288;2023-05-24T05:27:20;10.75;;;5.63;;
32200;SDS011;18701;45.588;5.288;2023-05-24T05:29:46;9.15;;;6.18;;
32200;SDS011;18701;45.588;5.288;2023-05-24T05:32:11;8.70;;;5.53;;
32200;SDS011;18701;45.588;5.288;2023-05-24T05:34:37;9.20;;;5.47;;
32200;SDS011;18701;45.588;5.288;2023-05-24T05:37:03;9.50;;;5.65;;
32200;SDS011;18701;45.588;5.288;2023-05-24T05:39:28;11.45;;;6.38;;
32200;SDS011;18701;45.588;5.288;2023-05-24T05:41:55;15.20;;;5.93;;
32200;SDS011;18701;45.588;5.288;2023-05-24T05:44:21;10.27;;;6.47;;
32200;SDS011;18701;45.588;5.288;2023-05-24T05:46:47;8.90;;;6.15;;
32200;SDS011;18701;45.588;5.288;2023-05-24T05:49:13;9.55;;;6.47;;
32200;SDS011;18701;45.588;5.288;2023-05-24T05:51:39;10.48;;;6.45;;
32200;SDS011;18701;45.588;5.288;2023-05-24T05:54:05;9.65;;;6.47;;
32200;SDS011;18701;45.588;5.288;2023-05-24T05:56:38;17.23;;;6.47;;
32200;SDS011;18701;45.588;5.288;2023-05-24T05:59:09;20.48;;;6.85;;
32200;SDS011;18701;45.588;5.288;2023-05-24T06:01:35;13.23;;;6.40;;
32200;SDS011;18701;45.588;5.288;2023-05-24T06:04:01;13.88;;;6.65;;
32200;SDS011;18701;45.588;5.288;2023-05-24T06:06:27;9.20;;;5.95;;
32200;SDS011;18701;45.588;5.288;2023-05-24T06:08:52;13.38;;;6.57;;
32200;SDS011;18701;45.588;5.288;2023-05-24T06:11:18;10.77;;;6.68;;
32200;SDS011;18701;45.588;5.288;2023-05-24T06:13:44;11.93;;;6.53;;
32200;SDS011;18701;45.588;5.288;2023-05-24T06:16:09;11.05;;;6.57;;
32200;SDS011;18701;45.588;5.288;2023-05-24T06:18:35;12.55;;;7.13;;
32200;SDS011;18701;45.588;5.288;2023-05-24T06:21:01;12.70;;;7.20;;
32200;SDS011;18701;45.588;5.288;2023-05-24T06:23:26;12.27;;;7.35;;
32200;SDS011;18701;45.588;5.288;2023-05-24T06:25:52;12.70;;;6.80;;
32200;SDS011;18701;45.588;5.288;2023-05-24T06:28:18;14.02;;;7.22;;
32200;SDS011;18701;45.588;5.288;2023-05-24T06:30:44;13.68;;;7.15;;
32200;SDS011;18701;45.588;5.288;2023-05-24T06:33:11;10.90;;;6.65;;
32200;SDS011;18701;45.588;5.288;2023-05-24T06:35:36;15.18;;;6.70;;
32200;SDS011;18701;45.588;5.288;2023-05-24T06:38:02;21.40;;;8.45;;
32200;SDS011;18701;45.588;5.288;2023-05-24T06:40:28;11.73;;;7.40;;
32200;SDS011;18701;45.588;5.288;2023-05-24T06:42:53;9.82;;;7.00;;
32200;SDS011;18701;45.588;5.288;2023-05-24T06:45:19;12.68;;;7.53;;
32200;SDS011;18701;45.588;5.288;2023-05-24T06:47:45;12.93;;;7.78;;
32200;SDS011;18701;45.588;5.288;2023-05-24T06:50:10;11.93;;;8.07;;
32200;SDS011;18701;45.588;5.288;2023-05-24T06:52:36;13.60;;;8.05;;
32200;SDS011;18701;45.588;5.288;2023-05-24T06:55:02;20.17;;;8.32;;
32200;SDS011;18701;45.588;5.288;2023-05-24T06:57:28;15.43;;;8.27;;
32200;SDS011;18701;45.588;5.288;2023-05-24T06:59:54;15.57;;;8.13;;
32200;SDS011;18701;45.588;5.288;2023-05-24T07:02:19;12.63;;;8.10;;
32200;SDS011;18701;45.588;5.288;2023-05-24T07:04:50;14.93;;;8.05;;
32200;SDS011;18701;45.588;5.288;2023-05-24T07:07:16;18.25;;;7.78;;
32200;SDS011;18701;45.588;5.288;2023-05-24T07:09:42;14.00;;;7.97;;
32200;SDS011;18701;45.588;5.288;2023-05-24T07:12:08;18.10;;;8.70;;
32200;SDS011;18701;45.588;5.288;2023-05-24T07:14:34;13.57;;;7.63;;
32200;SDS011;18701;45.588;5.288;2023-05-24T07:17:00;14.00;;;8.43;;
32200;SDS011;18701;45.588;5.288;2023-05-24T07:19:25;15.43;;;8.43;;
32200;SDS011;18701;45.588;5.288;2023-05-24T07:21:53;13.25;;;7.68;;
32200;SDS011;18701;45.588;5.288;2023-05-24T07:24:20;14.30;;;7.68;;
32200;SDS011;18701;45.588;5.288;2023-05-24T07:26:46;10.73;;;7.47;;
32200;SDS011;18701;45.588;5.288;2023-05-24T07:29:13;18.58;;;8.52;;
32200;SDS011;18701;45.588;5.288;2023-05-24T07:31:38;17.05;;;8.43;;
32200;SDS011;18701;45.588;5.288;2023-05-24T07:34:04;9.35;;;7.45;;
32200;SDS011;18701;45.588;5.288;2023-05-24T07:36:29;11.52;;;7.55;;
32200;SDS011;18701;45.588;5.288;2023-05-24T07:38:57;14.50;;;8.45;;
32200;SDS011;18701;45.588;5.288;2023-05-24T07:41:25;14.70;;;8.13;;
32200;SDS011;18701;45.588;5.288;2023-05-24T07:43:51;15.52;;;8.10;;
32200;SDS011;18701;45.588;5.288;2023-05-24T07:46:18;15.55;;;8.27;;
32200;SDS011;18701;45.588;5.288;2023-05-24T07:48:44;11.20;;;7.47;;
32200;SDS011;18701;45.588;5.288;2023-05-24T07:51:10;13.38;;;8.52;;
32200;SDS011;18701;45.588;5.288;2023-05-24T07:53:36;13.32;;;7.93;;
32200;SDS011;18701;45.588;5.288;2023-05-24T07:56:02;11.68;;;8.35;;
32200;SDS011;18701;45.588;5.288;2023-05-24T07:58:27;11.38;;;7.82;;
32200;SDS011;18701;45.588;5.288;2023-05-24T08:00:53;11.73;;;8.55;;
32200;SDS011;18701;45.588;5.288;2023-05-24T08:03:19;12.88;;;8.40;;
32200;SDS011;18701;45.588;5.288;2023-05-24T08:05:44;16.55;;;8.30;;
32200;SDS011;18701;45.588;5.288;2023-05-24T08:08:10;13.43;;;8.20;;
32200;SDS011;18701;45.588;5.288;2023-05-24T08:10:36;13.45;;;8.52;;
32200;SDS011;18701;45.588;5.288;2023-05-24T08:13:02;15.23;;;7.80;;
32200;SDS011;18701;45.588;5.288;2023-05-24T08:15:29;17.23;;;8.13;;
32200;SDS011;18701;45.588;5.288;2023-05-24T08:17:54;13.35;;;8.38;;
32200;SDS011;18701;45.588;5.288;2023-05-24T08:20:20;13.85;;;8.02;;
32200;SDS011;18701;45.588;5.288;2023-05-24T08:22:46;12.10;;;7.72;;
32200;SDS011;18701;45.588;5.288;2023-05-24T08:25:15;16.35;;;8.48;;
32200;SDS011;18701;45.588;5.288;2023-05-24T08:27:40;16.05;;;8.00;;
32200;SDS011;18701;45.588;5.288;2023-05-24T08:30:06;12.07;;;8.02;;
32200;SDS011;18701;45.588;5.288;2023-05-24T08:32:32;14.15;;;7.72;;
32200;SDS011;18701;45.588;5.288;2023-05-24T08:34:58;13.73;;;8.23;;
32200;SDS011;18701;45.588;5.288;2023-05-24T08:37:24;13.20;;;7.63;;
32200;SDS011;18701;45.588;5.288;2023-05-24T08:39:50;12.13;;;7.68;;
32200;SDS011;18701;45.588;5.288;2023-05-24T08:42:16;11.73;;;8.20;;
32200;SDS011;18701;45.588;5.288;2023-05-24T08:44:51;13.00;;;7.38;;
32200;SDS011;18701;45.588;5.288;2023-05-24T08:47:20;16.70;;;7.97;;
32200;SDS011;18701;45.588;5.288;2023-05-24T08:49:46;13.18;;;7.22;;
32200;SDS011;18701;45.588;5.288;2023-05-24T08:52:14;12.45;;;7.53;;
32200;SDS011;18701;45.588;5.288;2023-05-24T08:54:40;9.13;;;7.15;;
32200;SDS011;18701;45.588;5.288;2023-05-24T08:57:07;14.82;;;8.05;;
32200;SDS011;18701;45.588;5.288;2023-05-24T08:59:34;13.18;;;7.82;;
32200;SDS011;18701;45.588;5.288;2023-05-24T09:02:00;12.48;;;8.27;;
32200;SDS011;18701;45.588;5.288;2023-05-24T09:04:28;13.50;;;8.45;;
32200;SDS011;18701;45.588;5.288;2023-05-24T09:06:54;12.63;;;7.97;;
32200;SDS011;18701;45.588;5.288;2023-05-24T09:09:21;14.98;;;8.13;;
32200;SDS011;18701;45.588;5.288;2023-05-24T09:11:51;12.38;;;7.75;;
32200;SDS011;18701;45.588;5.288;2023-05-24T09:14:20;12.85;;;8.25;;
32200;SDS011;18701;45.588;5.288;2023-05-24T09:16:46;11.73;;;8.43;;
32200;SDS011;18701;45.588;5.288;2023-05-24T09:19:12;15.45;;;8.60;;
32200;SDS011;18701;45.588;5.288;2023-05-24T09:21:39;15.63;;;8.63;;
32200;SDS011;18701;45.588;5.288;2023-05-24T09:24:09;14.07;;;8.98;;
32200;SDS011;18701;45.588;5.288;2023-05-24T09:26:35;10.60;;;8.88;;
32200;SDS011;18701;45.588;5.288;2023-05-24T09:29:05;12.80;;;9.63;;
32200;SDS011;18701;45.588;5.288;2023-05-24T09:31:32;14.50;;;9.13;;
32200;SDS011;18701;45.588;5.288;2023-05-24T09:33:59;11.90;;;9.00;;
32200;SDS011;18701;45.588;5.288;2023-05-24T09:36:25;19.77;;;9.00;;
32200;SDS011;18701;45.588;5.288;2023-05-24T09:39:17;16.80;;;9.30;;
32200;SDS011;18701;45.588;5.288;2023-05-24T09:41:43;11.82;;;8.82;;
32200;SDS011;18701;45.588;5.288;2023-05-24T09:44:19;17.23;;;9.50;;
32200;SDS011;18701;45.588;5.288;2023-05-24T09:46:49;19.92;;;9.07;;
32200;SDS011;18701;45.588;5.288;2023-05-24T09:49:15;14.45;;;9.57;;
32200;SDS011;18701;45.588;5.288;2023-05-24T09:51:41;11.50;;;8.98;;
32200;SDS011;18701;45.588;5.288;2023-05-24T09:54:06;15.00;;;9.88;;
32200;SDS011;18701;45.588;5.288;2023-05-24T09:56:33;14.15;;;8.90;;
32200;SDS011;18701;45.588;5.288;2023-05-24T09:59:04;12.77;;;8.90;;
32200;SDS011;18701;45.588;5.288;2023-05-24T10:01:33;16.38;;;8.73;;
32200;SDS011;18701;45.588;5.288;2023-05-24T10:04:00;12.38;;;8.98;;
32200;SDS011;18701;45.588;5.288;2023-05-24T10:06:27;14.10;;;8.55;;
32200;SDS011;18701;45.588;5.288;2023-05-24T10:08:57;10.43;;;8.27;;
32200;SDS011;18701;45.588;5.288;2023-05-24T10:11:23;15.55;;;8.15;;
32200;SDS011;18701;45.588;5.288;2023-05-24T10:13:50;17.70;;;8.85;;
32200;SDS011;18701;45.588;5.288;2023-05-24T10:16:16;14.02;;;8.80;;
32200;SDS011;18701;45.588;5.288;2023-05-24T10:18:41;12.00;;;8.13;;
32200;SDS011;18701;45.588;5.288;2023-05-24T10:21:07;11.98;;;8.63;;
32200;SDS011;18701;45.588;5.288;2023-05-24T10:23:35;17.85;;;9.32;;
32200;SDS011;18701;45.588;5.288;2023-05-24T10:26:06;16.55;;;9.32;;
32200;SDS011;18701;45.588;5.288;2023-05-24T10:28:36;16.50;;;10.43;;
32200;SDS011;18701;45.588;5.288;2023-05-24T10:31:22;13.57;;;10.10;;
32200;SDS011;18701;45.588;5.288;2023-05-24T10:34:00;15.13;;;9.05;;
32200;SDS011;18701;45.588;5.288;2023-05-24T10:36:28;14.25;;;9.25;;
32200;SDS011;18701;45.588;5.288;2023-05-24T10:38:56;16.88;;;9.57;;
32200;SDS011;18701;45.588;5.288;2023-05-24T10:41:24;21.08;;;9.55;;
32200;SDS011;18701;45.588;5.288;2023-05-24T10:43:51;11.82;;;9.02;;
32200;SDS011;18701;45.588;5.288;2023-05-24T10:46:17;16.27;;;9.07;;
32200;SDS011;18701;45.588;5.288;2023-05-24T10:48:57;16.80;;;8.88;;
32200;SDS011;18701;45.588;5.288;2023-05-24T10:51:32;11.77;;;8.52;;
32200;SDS011;18701;45.588;5.288;2023-05-24T10:54:09;16.38;;;8.90;;
32200;SDS011;18701;45.588;5.288;2023-05-24T10:56:48;11.52;;;8.32;;
32200;SDS011;18701;45.588;5.288;2023-05-24T10:59:21;11.02;;;8.63;;
32200;SDS011;18701;45.588;5.288;2023-05-24T11:01:53;14.52;;;8.77;;
32200;SDS011;18701;45.588;5.288;2023-05-24T11:04:19;12.75;;;7.97;;
32200;SDS011;18701;45.588;5.288;2023-05-24T11:09:19;13.77;;;7.90;;
32200;SDS011;18701;45.588;5.288;2023-05-24T11:11:46;11.25;;;8.20;;
32200;SDS011;18701;45.588;5.288;2023-05-24T11:14:16;16.08;;;8.40;;
32200;SDS011;18701;45.588;5.288;2023-05-24T11:16:47;15.70;;;9.10;;
32200;SDS011;18701;45.588;5.288;2023-05-24T11:19:20;11.23;;;8.55;;
32200;SDS011;18701;45.588;5.288;2023-05-24T11:21:55;12.98;;;8.45;;
32200;SDS011;18701;45.588;5.288;2023-05-24T11:24:24;14.25;;;8.52;;
32200;SDS011;18701;45.588;5.288;2023-05-24T11:26:51;12.43;;;8.88;;
32200;SDS011;18701;45.588;5.288;2023-05-24T11:29:17;12.55;;;8.18;;
32200;SDS011;18701;45.588;5.288;2023-05-24T11:31:50;11.00;;;8.77;;
32200;SDS011;18701;45.588;5.288;2023-05-24T11:34:16;16.52;;;8.73;;
32200;SDS011;18701;45.588;5.288;2023-05-24T11:36:43;14.15;;;8.85;;
32200;SDS011;18701;45.588;5.288;2023-05-24T11:39:10;10.13;;;7.55;;
32200;SDS011;18701;45.588;5.288;2023-05-24T11:41:37;12.13;;;7.80;;
32200;SDS011;18701;45.588;5.288;2023-05-24T11:44:05;12.15;;;8.32;;
32200;SDS011;18701;45.588;5.288;2023-05-24T11:46:32;13.70;;;8.23;;
32200;SDS011;18701;45.588;5.288;2023-05-24T11:48:58;17.70;;;7.78;;
32200;SDS011;18701;45.588;5.288;2023-05-24T11:51:25;10.63;;;8.35;;
32200;SDS011;18701;45.588;5.288;2023-05-24T11:53:51;13.50;;;7.75;;
32200;SDS011;18701;45.588;5.288;2023-05-24T11:56:17;13.02;;;9.88;;
32200;SDS011;18701;45.588;5.288;2023-05-24T11:58:44;12.55;;;7.97;;
32200;SDS011;18701;45.588;5.288;2023-05-24T12:01:23;14.60;;;7.97;;
32200;SDS011;18701;45.588;5.288;2023-05-24T12:03:50;11.77;;;8.02;;
32200;SDS011;18701;45.588;5.288;2023-05-24T12:06:17;12.18;;;7.72;;
32200;SDS011;18701;45.588;5.288;2023-05-24T12:08:43;13.63;;;8.85;;
32200;SDS011;18701;45.588;5.288;2023-05-24T12:11:09;12.77;;;8.48;;
32200;SDS011;18701;45.588;5.288;2023-05-24T12:13:35;9.68;;;7.85;;
32200;SDS011;18701;45.588;5.288;2023-05-24T12:16:02;10.43;;;7.20;;
32200;SDS011;18701;45.588;5.288;2023-05-24T12:18:27;12.63;;;7.88;;
32200;SDS011;18701;45.588;5.288;2023-05-24T12:20:53;9.52;;;7.78;;
32200;SDS011;18701;45.588;5.288;2023-05-24T12:23:19;10.77;;;7.60;;
32200;SDS011;18701;45.588;5.288;2023-05-24T12:25:56;11.82;;;7.35;;
32200;SDS011;18701;45.588;5.288;2023-05-24T12:28:25;9.65;;;7.22;;
32200;SDS011;18701;45.588;5.288;2023-05-24T12:30:52;13.30;;;6.65;;
32200;SDS011;18701;45.588;5.288;2023-05-24T12:33:18;11.57;;;7.68;;
32200;SDS011;18701;45.588;5.288;2023-05-24T12:35:44;10.25;;;7.28;;
32200;SDS011;18701;45.588;5.288;2023-05-24T12:38:11;10.13;;;7.22;;
32200;SDS011;18701;45.588;5.288;2023-05-24T12:40:39;18.15;;;7.65;;
32200;SDS011;18701;45.588;5.288;2023-05-24T12:43:07;8.65;;;6.72;;
32200;SDS011;18701;45.588;5.288;2023-05-24T12:45:34;9.63;;;6.40;;
32200;SDS011;18701;45.588;5.288;2023-05-24T12:48:01;9.30;;;7.15;;
32200;SDS011;18701;45.588;5.288;2023-05-24T12:50:28;12.00;;;6.45;;
32200;SDS011;18701;45.588;5.288;2023-05-24T12:52:55;9.48;;;7.05;;
32200;SDS011;18701;45.588;5.288;2023-05-24T12:55:21;11.52;;;6.72;;
32200;SDS011;18701;45.588;5.288;2023-05-24T12:57:47;10.13;;;5.70;;
32200;SDS011;18701;45.588;5.288;2023-05-24T13:00:17;9.65;;;6.28;;
32200;SDS011;18701;45.588;5.288;2023-05-24T13:02:45;13.35;;;7.18;;
32200;SDS011;18701;45.588;5.288;2023-05-24T13:05:10;12.55;;;6.68;;
32200;SDS011;18701;45.588;5.288;2023-05-24T13:07:36;10.82;;;7.00;;
32200;SDS011;18701;45.588;5.288;2023-05-24T13:10:03;9.25;;;6.50;;
32200;SDS011;18701;45.588;5.288;2023-05-24T13:12:29;10.50;;;6.18;;
32200;SDS011;18701;45.588;5.288;2023-05-24T13:14:55;10.70;;;6.30;;
32200;SDS011;18701;45.588;5.288;2023-05-24T13:17:21;11.48;;;6.50;;
32200;SDS011;18701;45.588;5.288;2023-05-24T13:19:46;9.18;;;7.43;;
32200;SDS011;18701;45.588;5.288;2023-05-24T13:22:12;12.55;;;6.50;;
32200;SDS011;18701;45.588;5.288;2023-05-24T13:24:38;12.48;;;6.75;;
32200;SDS011;18701;45.588;5.288;2023-05-24T13:27:04;7.78;;;5.82;;
32200;SDS011;18701;45.588;5.288;2023-05-24T13:29:29;11.18;;;6.53;;
32200;SDS011;18701;45.588;5.288;2023-05-24T13:31:55;13.30;;;6.70;;
32200;SDS011;18701;45.588;5.288;2023-05-24T13:34:21;10.10;;;5.55;;
32200;SDS011;18701;45.588;5.288;2023-05-24T13:36:51;9.00;;;5.82;;
32200;SDS011;18701;45.588;5.288;2023-05-24T13:39:20;13.73;;;6.43;;
32200;SDS011;18701;45.588;5.288;2023-05-24T13:41:46;11.32;;;6.20;;
32200;SDS011;18701;45.588;5.288;2023-05-24T13:44:12;9.45;;;6.00;;
32200;SDS011;18701;45.588;5.288;2023-05-24T13:46:40;8.93;;;5.80;;
32200;SDS011;18701;45.588;5.288;2023-05-24T13:49:06;8.10;;;5.60;;
32200;SDS011;18701;45.588;5.288;2023-05-24T13:51:33;13.18;;;6.35;;
32200;SDS011;18701;45.588;5.288;2023-05-24T13:53:59;14.23;;;5.65;;
32200;SDS011;18701;45.588;5.288;2023-05-24T13:56:26;13.10;;;6.20;;
32200;SDS011;18701;45.588;5.288;2023-05-24T13:58:56;14.07;;;6.45;;
32200;SDS011;18701;45.588;5.288;2023-05-24T14:01:23;14.15;;;6.15;;
32200;SDS011;18701;45.588;5.288;2023-05-24T14:03:49;8.95;;;6.30;;
32200;SDS011;18701;45.588;5.288;2023-05-24T14:06:16;9.98;;;5.93;;
32200;SDS011;18701;45.588;5.288;2023-05-24T14:08:42;7.97;;;5.53;;
32200;SDS011;18701;45.588;5.288;2023-05-24T14:11:07;13.10;;;6.53;;
32200;SDS011;18701;45.588;5.288;2023-05-24T14:13:33;9.13;;;6.68;;
32200;SDS011;18701;45.588;5.288;2023-05-24T14:15:58;13.25;;;6.47;;
32200;SDS011;18701;45.588;5.288;2023-05-24T14:18:24;9.13;;;5.70;;
32200;SDS011;18701;45.588;5.288;2023-05-24T14:20:50;8.95;;;5.60;;
32200;SDS011;18701;45.588;5.288;2023-05-24T14:23:16;7.50;;;5.40;;
32200;SDS011;18701;45.588;5.288;2023-05-24T14:25:42;11.57;;;5.93;;
32200;SDS011;18701;45.588;5.288;2023-05-24T14:28:10;9.95;;;5.53;;
32200;SDS011;18701;45.588;5.288;2023-05-24T14:30:36;8.82;;;5.05;;
32200;SDS011;18701;45.588;5.288;2023-05-24T14:33:02;8.25;;;5.05;;
32200;SDS011;18701;45.588;5.288;2023-05-24T14:35:30;7.32;;;4.38;;
32200;SDS011;18701;45.588;5.288;2023-05-24T14:38:02;15.63;;;5.78;;
32200;SDS011;18701;45.588;5.288;2023-05-24T14:40:28;11.93;;;5.07;;
32200;SDS011;18701;45.588;5.288;2023-05-24T14:42:54;7.65;;;4.93;;
32200;SDS011;18701;45.588;5.288;2023-05-24T14:45:20;12.73;;;5.68;;
32200;SDS011;18701;45.588;5.288;2023-05-24T14:47:45;6.90;;;5.13;;
32200;SDS011;18701;45.588;5.288;2023-05-24T14:50:11;11.18;;;5.32;;
32200;SDS011;18701;45.588;5.288;2023-05-24T14:52:36;14.85;;;5.20;;
32200;SDS011;18701;45.588;5.288;2023-05-24T14:55:02;8.77;;;4.90;;
32200;SDS011;18701;45.588;5.288;2023-05-24T14:57:28;10.23;;;5.32;;
32200;SDS011;18701;45.588;5.288;2023-05-24T14:59:54;10.85;;;4.75;;